South Collingham, United Kingdom
Current Conditions -  °F | °C
As of 8:50 PM on Tuesday 25 Nov 2014 (Local Time) from EGXW Reporting Station
Overcast Overcast  
Wind Chill: 38°   Ceiling: 7000
Heat Index: 43°   Visibility: 6mi
Dew Point: 43°   Wind: 8mph
Humidity: 100%   Direction: 30°NNE
Pressure: 30.12"   Gusts: NA
Location:  53.13°N, 0.77°W
Report Text: EGXW 252050Z 03007KT 9999 FEW020 OVC070 06/06 Q1020 BLU TEMPO 5000 -RA BKN015 WHT
Loading
Personal Weather Stations






























Interactive Weather Map New forecast layout! Learn more

10-Day Weather Forecast

Advertisements
Track Severe Weather on mobile